メインページ
METAR-TAF:

METAR-TAF

空港 :

Sandpoint Airport (Dave Wall Field)

Sandpoint, アイダホ州, アメリカ合衆国

緯度: 48-17-58N, 経度: 116-33-36W, 海抜: 648m

現時点の気象観測

当レポートは26分前の04:15(UTC)に作成
の風 11kt、最大17ktの突風を伴う
気温 11°C
湿度 43%
気圧 1007 hPa
視程: 16.1km
高度7500ftの曇り

METAR: KSZT 210415Z AUTO 01011G17KT 10SM OVC075 11/M01 A2975 RMK AO2

時間: 21:41 (04:41 UTC)


TAF: 見つかりません

4,000以上の空港の気象観測と天気予報(METAR報とTAF報)

利用可能な観測所は地図上に黄色い丸と赤い丸で示す。

丸の上にカーソルを重ねると観測所名を参照できる。

次にクリックすると気象観測と天気予報を参照できる。

マップの切り替え:黒色「×」印の緑ボタンをクリックして拡大、「-」印の緑ボタンをクリックして縮小、緑色の三角印をクリックして隣りの地図に切り替え


METAR-TAF: